Unionport, Indiana
Current Conditions -  °F | °C
As of 3:53 PM on Sunday 21 Dec 2014 (Local Time) from KMIE Reporting Station
Haze Haze  
Wind Chill: 29°   Ceiling: Unl
Heat Index: 36°   Visibility: 6mi
Dew Point: 27°   Wind: 9mph
Humidity: 70%   Direction: 140°SE
Pressure: 30.16"   Gusts: NA
Location:  40.2108°N, 85.1197°W
Report Text: KMIE 212053Z 14008KT 6SM HZ CLR 02/M03 A3016 RMK AO2 SLP219 T00221028 56021
Loading
Personal Weather Stations






























Interactive Weather Map New forecast layout! Learn more

10-Day Weather Forecast

Advertisements
Track Severe Weather on mobile